Bo Airport

Jump to: basic info | weather | comments

Related pages: nearby airports | nearby navaids | notams | map

Basic information (top)

Codes: KBS GFBO
Location: lon 7.944400, lat -11.761000, elev 328 ft / 100 m msl
Status: medium_airport
Scheduled airline service: yes
Links: Wikipedia Mobile

Weather (top)

Current conditions for Lungi International Airport 94nm (175km) WNW (rec'd 2014/04/17 21:00Z):

GFLL 172100Z 30007KT 9999 BKN011 FEW027CB 27/22 Q1009

Airport forecast for Lungi International Airport 94nm (175km) WNW (rec'd 2014/04/17 16:57Z):

TAF TAF GFLL 171600Z 1716/1822 30008KT 9999 TS SCTO13 FEW026CB 
      BECMG 1804/1806 12003KT 5000BR BKN011 
      TEMPO 24006KT 9999 SCT013 
      TEMPO 1812/1818 27010KT SCT015 FEW026CB SCT013

Latest comments (top)

No comments yet for Bo Airport

More... (top)

See also NOTAMs and nearby airports and navaids, or visit the Bo Airport page at the main OurAirports website..